Terminal Aerodrome Forecast
Issued by NWS Sterling, VA

Home | Current Version | Previous Version | Text Only | Print | Product List | Glossary On
Versions: 1 2 3 4 5 6 7 8 9 10 11 12 13 14 15
598
FTUS41 KLWX 131720
TAFCHO
TAF
KCHO 131720Z 1318/1418 31012G24KT P6SM SCT050
     FM132300 31010KT P6SM FEW050
     FM140400 VRB04KT P6SM FEW050=

USA.gov is the U.S. government's official web portal to all federal, state and local government web resources and services.